Map

Track Data

SID SEASON NUMBER BASIN SUBBASIN NAME ISO_TIME NATURE LAT LON WMO_WIND WMO_PRES WMO_AGENCY TRACK_TYPE DIST2LAND LANDFALL IFLAG USA_AGENCY USA_ATCF_ID USA_LAT USA_LON USA_RECORD USA_STATUS USA_WIND USA_PRES USA_SSHS USA_R34_NE USA_R34_SE USA_R34_SW USA_R34_NW USA_R50_NE USA_R50_SE USA_R50_SW USA_R50_NW USA_R64_NE USA_R64_SE USA_R64_SW USA_R64_NW USA_POCI USA_ROCI USA_RMW USA_EYE TOKYO_LAT TOKYO_LON TOKYO_GRADE TOKYO_WIND TOKYO_PRES TOKYO_R50_DIR TOKYO_R50_LONG TOKYO_R50_SHORT TOKYO_R30_DIR TOKYO_R30_LONG TOKYO_R30_SHORT TOKYO_LAND CMA_LAT CMA_LON CMA_CAT CMA_WIND CMA_PRES HKO_LAT HKO_LON HKO_CAT HKO_WIND HKO_PRES NEWDELHI_LAT NEWDELHI_LON NEWDELHI_GRADE NEWDELHI_WIND NEWDELHI_PRES NEWDELHI_CI NEWDELHI_DP NEWDELHI_POCI REUNION_LAT REUNION_LON REUNION_TYPE REUNION_WIND REUNION_PRES REUNION_TNUM REUNION_CI REUNION_RMW REUNION_R34_NE REUNION_R34_SE REUNION_R34_SW REUNION_R34_NW REUNION_R50_NE REUNION_R50_SE REUNION_R50_SW REUNION_R50_NW REUNION_R64_NE REUNION_R64_SE REUNION_R64_SW REUNION_R64_NW BOM_LAT BOM_LON BOM_TYPE BOM_WIND BOM_PRES BOM_TNUM BOM_CI BOM_RMW BOM_R34_NE BOM_R34_SE BOM_R34_SW BOM_R34_NW BOM_R50_NE BOM_R50_SE BOM_R50_SW BOM_R50_NW BOM_R64_NE BOM_R64_SE BOM_R64_SW BOM_R64_NW BOM_ROCI BOM_POCI BOM_EYE BOM_POS_METHOD BOM_PRES_METHOD NADI_LAT NADI_LON NADI_CAT NADI_WIND NADI_PRES WELLINGTON_LAT WELLINGTON_LON WELLINGTON_WIND WELLINGTON_PRES DS824_LAT DS824_LON DS824_STAGE DS824_WIND DS824_PRES TD9636_LAT TD9636_LON TD9636_STAGE TD9636_WIND TD9636_PRES TD9635_LAT TD9635_LON TD9635_WIND TD9635_PRES TD9635_ROCI NEUMANN_LAT NEUMANN_LON NEUMANN_CLASS NEUMANN_WIND NEUMANN_PRES MLC_LAT MLC_LON MLC_CLASS MLC_WIND MLC_PRES USA_GUST BOM_GUST BOM_GUST_PER REUNION_GUST REUNION_GUST_PER USA_SEAHGT USA_SEARAD_NE USA_SEARAD_SE USA_SEARAD_SW USA_SEARAD_NW STORM_SPEED STORM_DIR
1967249N14303 1967 92 NA NA BEULAH 1967-09-05 12:00:00 TS 14.0000 -57.0000 30 hurdat_atl main 570 538 O_____________ hurdat_atl AL131967 14.0000 -57.0000 TD 30 -1 8 263
1967249N14303 1967 92 NA NA BEULAH 1967-09-05 15:00:00 TS 13.9502 -57.4125 main 538 499 P_____________ AL131967 13.9502 -57.4125 TD 30 -1 8 263
1967249N14303 1967 92 NA NA BEULAH 1967-09-05 18:00:00 TS 13.9000 -57.8000 30 1010 hurdat_atl main 499 477 O_____________ hurdat_atl AL131967 13.9000 -57.8000 TD 30 1010 -1 7 262
1967249N14303 1967 92 NA NA BEULAH 1967-09-05 21:00:00 TS 13.8499 -58.1500 main 468 440 P_____________ AL131967 13.8499 -58.1500 TD 30 -1 7 262
1967249N14303 1967 92 NA NA BEULAH 1967-09-06 00:00:00 TS 13.8000 -58.5000 30 hurdat_atl main 440 415 O_____________ hurdat_atl AL131967 13.8000 -58.5000 TD 30 -1 7 262
1967249N14303 1967 92 NA NA BEULAH 1967-09-06 03:00:00 TS 13.7500 -58.9000 main 415 383 P_____________ AL131967 13.7500 -58.9000 TD 30 -1 8 263
1967249N14303 1967 92 NA NA BEULAH 1967-09-06 06:00:00 TS 13.7000 -59.3000 30 hurdat_atl main 383 354 O_____________ hurdat_atl AL131967 13.7000 -59.3000 TD 30 -1 8 262
1967249N14303 1967 92 NA CS BEULAH 1967-09-06 09:00:00 TS 13.6425 -59.6950 main 354 342 P_____________ AL131967 13.6425 -59.6950 TD 30 -1 7 262
1967249N14303 1967 92 NA CS BEULAH 1967-09-06 12:00:00 TS 13.6000 -60.0000 30 hurdat_atl main 342 339 O_____________ hurdat_atl AL131967 13.6000 -60.0000 TD 30 -1 4 262
1967249N14303 1967 92 NA CS BEULAH 1967-09-06 15:00:00 TS 13.5849 -60.1300 main 339 336 P_____________ AL131967 13.5849 -60.1300 TD 30 -1 2 270
1967249N14303 1967 92 NA CS BEULAH 1967-09-06 18:00:00 TS 13.6000 -60.2000 30 hurdat_atl main 336 333 O_____________ hurdat_atl AL131967 13.6000 -60.2000 TD 30 -1 2 285
1967249N14303 1967 92 NA CS BEULAH 1967-09-06 21:00:00 TS 13.6425 -60.3500 main 333 331 P_____________ AL131967 13.6425 -60.3500 TD 30 -1 3 289
1967249N14303 1967 92 NA CS BEULAH 1967-09-07 00:00:00 TS 13.7000 -60.5000 30 hurdat_atl main 340 338 O_____________ hurdat_atl AL131967 13.7000 -60.5000 TD 30 -1 3 293
1967249N14303 1967 92 NA CS BEULAH 1967-09-07 03:00:00 TS 13.7500 -60.6150 main 338 338 P_____________ AL131967 13.7500 -60.6150 TD 30 -1 2 297
1967249N14303 1967 92 NA CS BEULAH 1967-09-07 06:00:00 TS 13.8000 -60.7000 30 hurdat_atl main 348 348 O_____________ hurdat_atl AL131967 13.8000 -60.7000 TD 30 -1 2 309
1967249N14303 1967 92 NA CS BEULAH 1967-09-07 09:00:00 TS 13.8500 -60.7425 main 348 348 P_____________ AL131967 13.8500 -60.7425 TD 35 0 1 317
1967249N14303 1967 92 NA CS BEULAH 1967-09-07 12:00:00 TS 13.9000 -60.8000 40 1006 hurdat_atl main 359 358 O_____________ hurdat_atl AL131967 13.9000 -60.8000 TS 40 1006 0 2 297
1967249N14303 1967 92 NA CS BEULAH 1967-09-07 15:00:00 TS 13.9425 -60.9275 main 358 358 P_____________ AL131967 13.9425 -60.9275 TS 42 1005 0 3 289
1967249N14303 1967 92 NA CS BEULAH 1967-09-07 18:00:00 TS 14.0000 -61.1000 45 hurdat_atl main 369 369 I_____________ hurdat_atl AL131967 14.0000 -61.1000 TS 45 1005 0 4 293
1967249N14303 1967 92 NA CS BEULAH 1967-09-07 21:00:00 TS 14.0925 -61.2925 main 380 380 P_____________ AL131967 14.0925 -61.2925 TS 47 1005 0 4 297
1967249N14303 1967 92 NA CS BEULAH 1967-09-08 00:00:00 TS 14.2000 -61.5000 50 1005 hurdat_atl main 391 391 O_____________ hurdat_atl AL131967 14.2000 -61.5000 TS 50 1005 0 5 298
1967249N14303 1967 92 NA CS BEULAH 1967-09-08 03:00:00 TS 14.3075 -61.7075 main 403 403 P_____________ AL131967 14.3075 -61.7075 TS 52 1002 0 4 297
1967249N14303 1967 92 NA CS BEULAH 1967-09-08 06:00:00 TS 14.4000 -61.9000 55 hurdat_atl main 414 414 I_____________ hurdat_atl AL131967 14.4000 -61.9000 TS 55 1000 0 3 295
1967249N14303 1967 92 NA CS BEULAH 1967-09-08 09:00:00 TS 14.4499 -62.0276 main 414 414 P_____________ AL131967 14.4499 -62.0276 TS 57 998 0 3 289
1967249N14303 1967 92 NA CS BEULAH 1967-09-08 12:00:00 TS 14.5000 -62.2000 60 996 hurdat_atl main 425 425 O_____________ hurdat_atl AL131967 14.5000 -62.2000 TS 60 996 0 5 286
1967249N14303 1967 92 NA CS BEULAH 1967-09-08 15:00:00 TS 14.5850 -62.5125 main 436 436 P_____________ AL131967 14.5850 -62.5125 TS 67 992 1 7 286
1967249N14303 1967 92 NA CS BEULAH 1967-09-08 18:00:00 TS 14.7000 -62.9000 75 989 hurdat_atl main 447 446 O_____________ hurdat_atl AL131967 14.7000 -62.9000 HU 75 989 1 8 289
1967249N14303 1967 92 NA CS BEULAH 1967-09-08 21:00:00 TS 14.8425 -63.3000 main 446 403 P_____________ AL131967 14.8425 -63.3000 HU 77 1 8 291
1967249N14303 1967 92 NA CS BEULAH 1967-09-09 00:00:00 TS 15.0000 -63.7000 80 hurdat_atl main 403 377 O_____________ hurdat_atl AL131967 15.0000 -63.7000 HU 80 1 8 292
1967249N14303 1967 92 NA CS BEULAH 1967-09-09 03:00:00 TS 15.1349 -64.0576 main 371 336 P_____________ AL131967 15.1349 -64.0576 HU 85 2 7 294
1967249N14303 1967 92 NA CS BEULAH 1967-09-09 06:00:00 TS 15.3000 -64.4000 90 hurdat_atl main 336 303 O_____________ hurdat_atl AL131967 15.3000 -64.4000 HU 90 2 8 302
1967249N14303 1967 92 NA CS BEULAH 1967-09-09 09:00:00 TS 15.5348 -64.7276 main 303 257 P_____________ AL131967 15.5348 -64.7276 HU 95 2 8 307
1967249N14303 1967 92 NA CS BEULAH 1967-09-09 12:00:00 TS 15.8000 -65.1000 100 hurdat_atl main 257 222 O_____________ hurdat_atl AL131967 15.8000 -65.1000 HU 100 3 10 301
1967249N14303 1967 92 NA CS BEULAH 1967-09-09 15:00:00 TS 16.0502 -65.6074 main 211 179 P_____________ AL131967 16.0502 -65.6074 HU 107 3 11 297
1967249N14303 1967 92 NA CS BEULAH 1967-09-09 18:00:00 TS 16.3000 -66.1000 115 950 hurdat_atl main 179 157 O_____________ hurdat_atl AL131967 16.3000 -66.1000 HU 115 950 4 9 303
1967249N14303 1967 92 NA CS BEULAH 1967-09-09 21:00:00 TS 16.5497 -66.4078 main 158 124 P_____________ AL131967 16.5497 -66.4078 HU 117 4 8 311
1967249N14303 1967 92 NA CS BEULAH 1967-09-10 00:00:00 TS 16.8000 -66.7000 120 hurdat_atl main 124 90 O_____________ hurdat_atl AL131967 16.8000 -66.7000 HU 120 4 9 306
1967249N14303 1967 92 NA CS BEULAH 1967-09-10 03:00:00 TS 17.0727 -67.1498 main 90 74 P_____________ AL131967 17.0727 -67.1498 HU 122 4 10 300
1967249N14303 1967 92 NA CS BEULAH 1967-09-10 06:00:00 TS 17.3000 -67.6000 125 hurdat_atl main 79 77 O_____________ hurdat_atl AL131967 17.3000 -67.6000 HU 125 4 8 296
1967249N14303 1967 92 NA CS BEULAH 1967-09-10 09:00:00 TS 17.4298 -67.9077 main 92 89 P_____________ AL131967 17.4298 -67.9077 HU 127 4 6 289
1967249N14303 1967 92 NA CS BEULAH 1967-09-10 12:00:00 TS 17.5000 -68.2000 130 947 hurdat_atl main 89 67 O_____________ hurdat_atl AL131967 17.5000 -68.2000 HU 130 947 4 7 281
1967249N14303 1967 92 NA CS BEULAH 1967-09-10 15:00:00 TS 17.5575 -68.5776 main 67 67 P_____________ AL131967 17.5575 -68.5776 HU 125 949 4 8 277
1967249N14303 1967 92 NA CS BEULAH 1967-09-10 18:00:00 TS 17.6000 -69.0000 120 951 hurdat_atl main 70 70 O_____________ hurdat_atl AL131967 17.6000 -69.0000 HU 120 951 4 8 277
1967249N14303 1967 92 NA CS BEULAH 1967-09-10 21:00:00 TS 17.6574 -69.4425 main 81 64 P_____________ AL131967 17.6574 -69.4425 HU 115 959 4 9 277
1967249N14303 1967 92 NA CS BEULAH 1967-09-11 00:00:00 TS 17.7000 -69.9000 110 967 hurdat_atl main 64 55 O_____________ hurdat_atl AL131967 17.7000 -69.9000 HU 110 967 3 9 273
1967249N14303 1967 92 NA CS BEULAH 1967-09-11 03:00:00 TS 17.7075 -70.3651 main 55 46 P_____________ AL131967 17.7075 -70.3651 HU 95 2 9 270
1967249N14303 1967 92 NA CS BEULAH 1967-09-11 06:00:00 TS 17.7000 -70.8000 80 hurdat_atl main 46 23 O_____________ hurdat_atl AL131967 17.7000 -70.8000 HU 80 1 7 270
1967249N14303 1967 92 NA CS BEULAH 1967-09-11 09:00:00 TS 17.7072 -71.1349 main 23 0 P_____________ AL131967 17.7072 -71.1349 HU 77 1 7 270
1967249N14303 1967 92 NA CS BEULAH 1967-09-11 12:00:00 TS 17.7000 -71.5000 75 hurdat_atl main 10 10 O_____________ hurdat_atl AL131967 17.7000 -71.5000 HU 75 1 9 266
1967249N14303 1967 92 NA CS BEULAH 1967-09-11 15:00:00 TS 17.6503 -72.0501 main 49 49 P_____________ AL131967 17.6503 -72.0501 HU 77 1 11 265
1967249N14303 1967 92 NA CS BEULAH 1967-09-11 18:00:00 TS 17.6000 -72.6000 80 978 hurdat_atl main 59 55 O_____________ hurdat_atl AL131967 17.6000 -72.6000 HU 80 978 1 9 267
1967249N14303 1967 92 NA CS BEULAH 1967-09-11 21:00:00 TS 17.5997 -72.9724 main 59 59 P_____________ AL131967 17.5997 -72.9724 HU 72 992 1 7 270
1967249N14303 1967 92 NA CS BEULAH 1967-09-12 00:00:00 TS 17.6000 -73.3000 65 1006 hurdat_atl main 67 45 O_____________ hurdat_atl AL131967 17.6000 -73.3000 HU 65 1006 1 7 267
1967249N14303 1967 92 NA CS BEULAH 1967-09-12 03:00:00 TS 17.5649 -73.6775 main 45 44 P_____________ AL131967 17.5649 -73.6775 HU 65 1001 1 8 263
1967249N14303 1967 92 NA CS BEULAH 1967-09-12 06:00:00 TS 17.5000 -74.1000 65 997 hurdat_atl main 59 59 O_____________ hurdat_atl AL131967 17.5000 -74.1000 HU 65 997 1 9 263
1967249N14303 1967 92 NA CS BEULAH 1967-09-12 09:00:00 TS 17.4524 -74.5771 main 91 91 P_____________ AL131967 17.4524 -74.5771 HU 62 998 0 10 258
1967249N14303 1967 92 NA CS BEULAH 1967-09-12 12:00:00 TS 17.3000 -75.1000 60 1000 hurdat_atl main 134 116 O_____________ hurdat_atl AL131967 17.3000 -75.1000 TS 60 1000 0 12 243
1967249N14303 1967 92 NA CS BEULAH 1967-09-12 15:00:00 TS 16.9077 -75.6806 main 123 123 P_____________ AL131967 16.9077 -75.6806 TS 55 999 0 13 233
1967249N14303 1967 92 NA CS BEULAH 1967-09-12 18:00:00 TS 16.5000 -76.2000 50 998 hurdat_atl main 156 156 O_____________ hurdat_atl AL131967 16.5000 -76.2000 TS 50 998 0 10 234
1967249N14303 1967 92 NA CS BEULAH 1967-09-12 21:00:00 TS 16.3048 -76.5446 main 173 165 P_____________ AL131967 16.3048 -76.5446 TS 50 1001 0 7 242
1967249N14303 1967 92 NA CS BEULAH 1967-09-13 00:00:00 TS 16.2000 -76.8000 50 1004 hurdat_atl main 173 170 O_____________ hurdat_atl AL131967 16.2000 -76.8000 TS 50 1004 0 5 247
1967249N14303 1967 92 NA CS BEULAH 1967-09-13 03:00:00 TS 16.0924 -77.0574 main 179 179 P_____________ AL131967 16.0924 -77.0574 TS 50 1002 0 5 247
1967249N14303 1967 92 NA CS BEULAH 1967-09-13 06:00:00 TS 16.0000 -77.3000 50 hurdat_atl main 190 190 I_____________ hurdat_atl AL131967 16.0000 -77.3000 TS 50 1000 0 5 247
1967249N14303 1967 92 NA CS BEULAH 1967-09-13 09:00:00 TS 15.8850 -77.5650 main 205 205 P_____________ AL131967 15.8850 -77.5650 TS 50 998 0 5 247
1967249N14303 1967 92 NA CS BEULAH 1967-09-13 12:00:00 TS 15.8000 -77.8000 50 996 hurdat_atl main 222 222 O_____________ hurdat_atl AL131967 15.8000 -77.8000 TS 50 996 0 4 254
1967249N14303 1967 92 NA CS BEULAH 1967-09-13 15:00:00 TS 15.7774 -77.9575 main 229 229 P_____________ AL131967 15.7774 -77.9575 TS 50 996 0 3 270
1967249N14303 1967 92 NA CS BEULAH 1967-09-13 18:00:00 TS 15.8000 -78.1000 50 997 hurdat_atl main 233 233 O_____________ hurdat_atl AL131967 15.8000 -78.1000 TS 50 997 0 3 282
1967249N14303 1967 92 NA CS BEULAH 1967-09-13 21:00:00 TS 15.8425 -78.2850 main 242 232 P_____________ AL131967 15.8425 -78.2850 TS 52 996 0 4 285
1967249N14303 1967 92 NA CS BEULAH 1967-09-14 00:00:00 TS 15.9000 -78.5000 55 996 hurdat_atl main 239 239 O_____________ hurdat_atl AL131967 15.9000 -78.5000 TS 55 996 0 5 282
1967249N14303 1967 92 NA CS BEULAH 1967-09-14 03:00:00 TS 15.9350 -78.7426 main 247 242 P_____________ AL131967 15.9350 -78.7426 TS 57 997 0 5 282
1967249N14303 1967 92 NA CS BEULAH 1967-09-14 06:00:00 TS 16.0000 -79.0000 60 998 hurdat_atl main 253 246 O_____________ hurdat_atl AL131967 16.0000 -79.0000 TS 60 998 0 5 291
1967249N14303 1967 92 NA CS BEULAH 1967-09-14 09:00:00 TS 16.1199 -79.2426 main 249 237 P_____________ AL131967 16.1199 -79.2426 TS 67 994 1 6 302
1967249N14303 1967 92 NA CS BEULAH 1967-09-14 12:00:00 TS 16.3000 -79.5000 75 991 hurdat_atl main 242 235 O_____________ hurdat_atl AL131967 16.3000 -79.5000 HU 75 991 1 7 309
1967249N14303 1967 92 NA CS BEULAH 1967-09-14 15:00:00 TS 16.5349 -79.7701 main 241 230 P_____________ AL131967 16.5349 -79.7701 HU 82 990 1 8 311
1967249N14303 1967 92 NA CS BEULAH 1967-09-14 18:00:00 TS 16.8000 -80.1000 90 989 hurdat_atl main 238 238 O_____________ hurdat_atl AL131967 16.8000 -80.1000 HU 90 989 2 9 305
1967249N14303 1967 92 NA CS BEULAH 1967-09-14 21:00:00 TS 17.0652 -80.5499 main 254 254 P_____________ AL131967 17.0652 -80.5499 HU 95 987 2 10 300
1967249N14303 1967 92 NA CS BEULAH 1967-09-15 00:00:00 TS 17.3000 -81.0000 100 985 hurdat_atl main 293 293 O_____________ hurdat_atl AL131967 17.3000 -81.0000 HU 100 985 3 8 298
1967249N14303 1967 92 NA CS BEULAH 1967-09-15 03:00:00 TS 17.4573 -81.3078 main 316 316 P_____________ AL131967 17.4573 -81.3078 HU 100 983 3 6 298
1967249N14303 1967 92 NA CS BEULAH 1967-09-15 06:00:00 TS 17.6000 -81.6000 100 hurdat_atl main 321 312 I_____________ hurdat_atl AL131967 17.6000 -81.6000 HU 100 982 3 7 297
1967249N14303 1967 92 NA CS BEULAH 1967-09-15 09:00:00 TS 17.7850 -81.9776 main 317 312 P_____________ AL131967 17.7850 -81.9776 HU 100 981 3 9 298
1967249N14303 1967 92 NA CS BEULAH 1967-09-15 12:00:00 TS 18.0000 -82.4000 100 980 hurdat_atl main 318 308 O_____________ hurdat_atl AL131967 18.0000 -82.4000 HU 100 980 3 10 299
1967249N14303 1967 92 NA CS BEULAH 1967-09-15 15:00:00 TS 18.2652 -82.8798 main 316 312 P_____________ AL131967 18.2652 -82.8798 HU 100 979 3 10 300
1967249N14303 1967 92 NA CS BEULAH 1967-09-15 18:00:00 TS 18.5000 -83.3000 100 978 hurdat_atl main 320 316 O_____________ hurdat_atl AL131967 18.5000 -83.3000 HU 100 978 3 7 299
1967249N14303 1967 92 NA CS BEULAH 1967-09-15 21:00:00 TS 18.5997 -83.5154 main 321 313 P_____________ AL131967 18.5997 -83.5154 HU 100 976 3 4 298
1967249N14303 1967 92 NA CS BEULAH 1967-09-16 00:00:00 TS 18.7000 -83.7000 100 975 hurdat_atl main 316 302 O_____________ hurdat_atl AL131967 18.7000 -83.7000 HU 100 975 3 6 305
1967249N14303 1967 92 NA CS BEULAH 1967-09-16 03:00:00 TS 18.9350 -84.0274 main 306 290 P_____________ AL131967 18.9350 -84.0274 HU 100 972 3 8 307
1967249N14303 1967 92 NA CS BEULAH 1967-09-16 06:00:00 TS 19.2000 -84.4000 100 970 hurdat_atl main 290 268 O_____________ hurdat_atl AL131967 19.2000 -84.4000 HU 100 970 3 8 305
1967249N14303 1967 92 NA CS BEULAH 1967-09-16 09:00:00 TS 19.4150 -84.7650 main 268 230 P_____________ AL131967 19.4150 -84.7650 HU 100 967 3 8 301
1967249N14303 1967 92 NA CS BEULAH 1967-09-16 12:00:00 TS 19.6000 -85.1000 100 964 hurdat_atl main 230 207 O_____________ hurdat_atl AL131967 19.6000 -85.1000 HU 100 964 3 7 302
1967249N14303 1967 92 NA CS BEULAH 1967-09-16 15:00:00 TS 19.7574 -85.3577 main 192 168 P_____________ AL131967 19.7574 -85.3577 HU 100 965 3 6 303
1967249N14303 1967 92 NA CS BEULAH 1967-09-16 18:00:00 TS 19.9000 -85.6000 100 967 hurdat_atl main 168 145 O_____________ hurdat_atl AL131967 19.9000 -85.6000 HU 100 967 3 6 301
1967249N14303 1967 92 NA CS BEULAH 1967-09-16 21:00:00 TS 20.0423 -85.8627 main 137 99 P_____________ AL131967 20.0423 -85.8627 HU 97 3 6 298
1967249N14303 1967 92 NA CS BEULAH 1967-09-17 00:00:00 TS 20.2000 -86.2000 95 hurdat_atl main 99 54 O_____________ hurdat_atl AL131967 20.2000 -86.2000 HU 95 2 8 295
1967249N14303 1967 92 NA CS BEULAH 1967-09-17 03:00:00 TS 20.3924 -86.6476 main 54 0 P_____________ AL131967 20.3924 -86.6476 HU 92 2 10 293
1967249N14303 1967 92 NA CS BEULAH 1967-09-17 06:00:00 TS 20.6000 -87.2000 90 hurdat_atl main 0 0 O_____________ hurdat_atl AL131967 20.6000 -87.2000 HU 90 2 12 290
1967249N14303 1967 92 NA NA BEULAH 1967-09-17 09:00:00 TS 20.8153 -87.8573 main 0 0 P_____________ AL131967 20.8153 -87.8573 HU 87 2 13 288
1967249N14303 1967 92 NA NA BEULAH 1967-09-17 12:00:00 TS 21.0000 -88.5000 85 hurdat_atl main 0 0 O_____________ hurdat_atl AL131967 21.0000 -88.5000 HU 85 2 11 286
1967249N14303 1967 92 NA NA BEULAH 1967-09-17 15:00:00 TS 21.1069 -88.9579 main 0 0 P_____________ AL131967 21.1069 -88.9579 HU 85 2 9 283
1967249N14303 1967 92 NA NA BEULAH 1967-09-17 18:00:00 TS 21.2000 -89.4000 85 hurdat_atl main 0 0 O_____________ hurdat_atl AL131967 21.2000 -89.4000 HU 85 2 10 285
1967249N14303 1967 92 NA GM BEULAH 1967-09-17 21:00:00 TS 21.3575 -89.9773 main 24 24 P_____________ AL131967 21.3575 -89.9773 HU 87 2 12 285
1967249N14303 1967 92 NA GM BEULAH 1967-09-18 00:00:00 TS 21.5000 -90.6000 90 977 hurdat_atl main 54 54 O_____________ hurdat_atl AL131967 21.5000 -90.6000 HU 90 977 2 12 280
1967249N14303 1967 92 NA GM BEULAH 1967-09-18 03:00:00 TS 21.5575 -91.2228 main 108 108 P_____________ AL131967 21.5575 -91.2228 HU 92 977 2 11 275
1967249N14303 1967 92 NA GM BEULAH 1967-09-18 06:00:00 TS 21.6000 -91.8000 95 978 hurdat_atl main 165 165 O_____________ hurdat_atl AL131967 21.6000 -91.8000 HU 95 978 2 10 277
1967249N14303 1967 92 NA GM BEULAH 1967-09-18 09:00:00 TS 21.6846 -92.2651 main 217 217 P_____________ AL131967 21.6846 -92.2651 HU 95 974 2 9 283
1967249N14303 1967 92 NA GM BEULAH 1967-09-18 12:00:00 TS 21.8000 -92.7000 95 970 hurdat_atl main 260 260 O_____________ hurdat_atl AL131967 21.8000 -92.7000 HU 95 970 2 9 286
1967249N14303 1967 92 NA GM BEULAH 1967-09-18 15:00:00 TS 21.9427 -93.2299 main 313 313 P_____________ AL131967 21.9427 -93.2299 HU 97 968 3 10 288
1967249N14303 1967 92 NA GM BEULAH 1967-09-18 18:00:00 TS 22.1000 -93.7000 100 967 hurdat_atl main 368 346 O_____________ hurdat_atl AL131967 22.1000 -93.7000 HU 100 967 3 8 293
1967249N14303 1967 92 NA GM BEULAH 1967-09-18 21:00:00 TS 22.2422 -93.9802 main 346 331 P_____________ AL131967 22.2422 -93.9802 HU 102 962 3 6 303
1967249N14303 1967 92 NA GM BEULAH 1967-09-19 00:00:00 TS 22.4000 -94.2000 105 hurdat_atl main 331 309 I_____________ hurdat_atl AL131967 22.4000 -94.2000 HU 105 958 3 6 306
1967249N14303 1967 92 NA GM BEULAH 1967-09-19 03:00:00 TS 22.5698 -94.4703 main 309 290 P_____________ AL131967 22.5698 -94.4703 HU 107 953 3 7 306
1967249N14303 1967 92 NA GM BEULAH 1967-09-19 06:00:00 TS 22.8000 -94.8000 110 949 hurdat_atl main 290 265 O_____________ hurdat_atl AL131967 22.8000 -94.8000 HU 110 949 3 9 308
1967249N14303 1967 92 NA GM BEULAH 1967-09-19 09:00:00 TS 23.1503 -95.2719 main 255 214 P_____________ AL131967 23.1503 -95.2719 HU 117 955 4 11 310
1967249N14303 1967 92 NA GM BEULAH 1967-09-19 12:00:00 TS 23.5000 -95.7000 125 961 hurdat_atl main 214 193 O_____________ hurdat_atl AL131967 23.5000 -95.7000 HU 125 961 4 8 315
1967249N14303 1967 92 NA GM BEULAH 1967-09-19 15:00:00 TS 23.7298 -95.9029 main 193 182 P_____________ AL131967 23.7298 -95.9029 HU 130 942 4 5 326
1967249N14303 1967 92 NA GM BEULAH 1967-09-19 18:00:00 TS 23.9000 -96.0000 135 923 hurdat_atl main 182 171 O_____________ hurdat_atl AL131967 23.9000 -96.0000 HU 135 923 4 3 331
1967249N14303 1967 92 NA GM BEULAH 1967-09-19 21:00:00 TS 24.0124 -96.0779 main 171 155 P_____________ AL131967 24.0124 -96.0779 HU 137 923 5 4 329
1967249N14303 1967 92 NA GM BEULAH 1967-09-20 00:00:00 TS 24.2000 -96.2000 140 923 hurdat_atl main 155 110 O_____________ hurdat_atl AL131967 24.2000 -96.2000 HU 140 923 5 7 328
1967249N14303 1967 92 NA GM BEULAH 1967-09-20 03:00:00 TS 24.6127 -96.4845 main 110 60 P_____________ AL131967 24.6127 -96.4845 HU 140 927 5 11 329
1967249N14303 1967 92 NA GM BEULAH 1967-09-20 06:00:00 TS 25.1000 -96.8000 140 931 hurdat_atl main 60 22 O_____________ hurdat_atl AL131967 25.1000 -96.8000 HU 140 931 5 10 333
1967249N14303 1967 92 NA GM BEULAH 1967-09-20 09:00:00 TS 25.5299 -97.0078 main 22 0 P_____________ AL131967 25.5299 -97.0078 HU 140 5 9 336
1967249N14303 1967 92 NA NA BEULAH 1967-09-20 12:00:00 TS 25.9000 -97.2000 140 hurdat_atl main 0 0 O_____________ hurdat_atl AL131967 25.9000 -97.2000 HU 140 5 7 327
1967249N14303 1967 92 NA NA BEULAH 1967-09-20 15:00:00 TS 26.1425 -97.4503 main 0 0 P_____________ AL131967 26.1425 -97.4503 HU 115 4 7 318
1967249N14303 1967 92 NA NA BEULAH 1967-09-20 18:00:00 TS 26.4000 -97.7000 90 hurdat_atl main 0 0 O_____________ hurdat_atl AL131967 26.4000 -97.7000 HU 90 2 8 330
1967249N14303 1967 92 NA NA BEULAH 1967-09-20 21:00:00 TS 26.8575 -97.9148 main 0 0 P_____________ AL131967 26.8575 -97.9148 HU 80 1 10 338
1967249N14303 1967 92 NA NA BEULAH 1967-09-21 00:00:00 TS 27.3000 -98.1000 70 hurdat_atl main 0 0 O_____________ hurdat_atl AL131967 27.3000 -98.1000 HU 70 1 8 337
1967249N14303 1967 92 NA NA BEULAH 1967-09-21 03:00:00 TS 27.5674 -98.2577 main 0 0 P_____________ AL131967 27.5674 -98.2577 HU 67 1 5 326
1967249N14303 1967 92 NA NA BEULAH 1967-09-21 06:00:00 TS 27.7000 -98.4000 65 hurdat_atl main 0 0 O_____________ hurdat_atl AL131967 27.7000 -98.4000 HU 65 1 3 309
1967249N14303 1967 92 NA NA BEULAH 1967-09-21 09:00:00 TS 27.7674 -98.5349 main 0 0 P_____________ AL131967 27.7674 -98.5349 HU 55 0 3 270
1967249N14303 1967 92 NA NA BEULAH 1967-09-21 12:00:00 TS 27.7000 -98.7000 45 hurdat_atl main 0 0 O_____________ hurdat_atl AL131967 27.7000 -98.7000 TS 45 0 5 233
1967249N14303 1967 92 NA NA BEULAH 1967-09-21 15:00:00 TS 27.4876 -98.9503 main 0 0 P_____________ AL131967 27.4876 -98.9503 TS 40 0 7 222
1967249N14303 1967 92 NA NA BEULAH 1967-09-21 18:00:00 TS 27.2000 -99.2000 35 hurdat_atl main 0 0 O_____________ hurdat_atl AL131967 27.2000 -99.2000 TS 35 0 7 214
1967249N14303 1967 92 NA NA BEULAH 1967-09-21 21:00:00 TS 26.9275 -99.3725 main 0 0 P_____________ AL131967 26.9275 -99.3725 TS 35 0 6 208
1967249N14303 1967 92 NA NA BEULAH 1967-09-22 00:00:00 TS 26.7000 -99.5000 35 hurdat_atl main 0 0 O_____________ hurdat_atl AL131967 26.7000 -99.5000 TS 35 0 4 211
1967249N14303 1967 92 NA NA BEULAH 1967-09-22 03:00:00 TS 26.5925 -99.5998 main 0 0 P_____________ AL131967 26.5925 -99.5998 TS 35 0 3 222
1967249N14303 1967 92 NA NA BEULAH 1967-09-22 06:00:00 TS 26.5000 -99.7000 35 hurdat_atl main 0 0 O_____________ hurdat_atl AL131967 26.5000 -99.7000 TS 35 0 4 217
1967249N14303 1967 92 NA NA BEULAH 1967-09-22 09:00:00 TS 26.3075 -99.8426 main 0 0 P_____________ AL131967 26.3075 -99.8426 TS 32 -1 5 214
1967249N14303 1967 92 NA NA BEULAH 1967-09-22 12:00:00 TS 26.1000 -100.000 30 hurdat_atl main 0 0 O_____________ hurdat_atl AL131967 26.1000 -100.000 TD 30 -1 5 217
1967249N14303 1967 92 NA NA BEULAH 1967-09-22 15:00:00 TS 25.9350 -100.153 main 0 0 P_____________ AL131967 25.9350 -100.153 TD 30 -1 4 222
1967249N14303 1967 92 NA NA BEULAH 1967-09-22 18:00:00 TS 25.8000 -100.300 30 hurdat_atl main 0 O_____________ hurdat_atl AL131967 25.8000 -100.300 TD 30 -1 4 225

About IBTrACS Database

This database is a web-friendly format of International Best Track Archive for Climate Stewardship (IBTrACS), a global best track data archive curated by NOAA dating back to 1842.

Updated: 2021-10-21